createdAt,value
2022-12-20T00:00:05.214Z,101119.59
2022-12-20T00:05:06.886Z,101120.78
2022-12-20T00:10:08.831Z,101117.88
2022-12-20T00:15:10.822Z,101114.00
2022-12-20T00:20:12.923Z,101102.84
2022-12-20T00:25:14.475Z,101107.84
2022-12-20T00:30:16.491Z,101103.25
2022-12-20T00:35:18.033Z,101085.81
2022-12-20T00:40:19.630Z,101093.78
2022-12-20T00:45:21.126Z,101086.66
2022-12-20T00:50:22.721Z,101085.00
2022-12-20T00:55:24.473Z,101075.03
2022-12-20T01:00:26.010Z,101076.91
2022-12-20T01:05:27.515Z,101062.06
2022-12-20T01:10:28.992Z,101071.78
2022-12-20T01:15:30.502Z,101079.59
2022-12-20T01:20:31.994Z,101061.72
2022-12-20T01:25:33.468Z,101077.56
2022-12-20T01:30:34.950Z,101068.13
2022-12-20T01:35:36.477Z,101069.84
2022-12-20T01:40:39.293Z,101067.69
2022-12-20T01:45:40.975Z,101057.69
2022-12-20T01:50:42.742Z,101064.25
2022-12-20T01:55:47.731Z,101064.81
2022-12-20T02:00:49.445Z,101045.66
2022-12-20T02:05:51.119Z,101041.22
2022-12-20T02:11:31.497Z,101026.00
2022-12-20T02:16:43.932Z,101033.25
2022-12-20T02:22:22.451Z,101035.00
2022-12-20T02:27:41.089Z,101035.47
2022-12-20T02:33:07.007Z,101028.88
2022-12-20T02:38:44.843Z,101038.47
2022-12-20T02:44:11.726Z,101031.91
2022-12-20T02:49:16.803Z,101028.06
2022-12-20T02:54:19.131Z,101023.34
2022-12-20T02:59:25.558Z,101029.44
2022-12-20T03:04:30.819Z,101024.72
2022-12-20T03:09:34.932Z,101023.34
2022-12-20T03:14:36.464Z,101017.22
2022-12-20T03:19:38.209Z,101018.66
2022-12-20T03:24:39.741Z,101021.81
2022-12-20T03:29:41.351Z,101016.97
2022-12-20T03:34:42.890Z,101015.09
2022-12-20T03:39:44.454Z,101010.38
2022-12-20T03:44:46.177Z,101014.09
2022-12-20T03:49:47.834Z,101016.38
2022-12-20T03:54:49.543Z,101002.81
2022-12-20T03:59:51.067Z,100991.38
2022-12-20T04:04:52.576Z,100997.53
2022-12-20T04:09:54.143Z,100993.81
2022-12-20T04:14:55.651Z,100987.69
2022-12-20T04:19:57.173Z,100981.97
2022-12-20T04:24:58.659Z,100991.69
2022-12-20T04:30:00.254Z,100957.53
2022-12-20T04:35:01.948Z,100968.09
2022-12-20T04:40:04.182Z,100959.81
2022-12-20T04:45:05.981Z,100963.50
2022-12-20T04:50:07.898Z,100965.25
2022-12-20T04:55:09.614Z,100957.94
2022-12-20T05:00:11.615Z,100945.53
2022-12-20T05:05:14.080Z,100942.09
2022-12-20T05:10:15.691Z,100934.94
2022-12-20T05:15:17.606Z,100938.69
2022-12-20T05:20:19.117Z,100950.25
2022-12-20T05:25:39.520Z,100953.53
2022-12-20T05:30:41.031Z,100944.81
2022-12-20T05:35:42.594Z,100937.97
2022-12-20T05:40:44.326Z,100930.97
2022-12-20T05:45:47.353Z,100921.97
2022-12-20T05:50:49.183Z,100924.38
2022-12-20T05:55:53.272Z,100913.69
2022-12-20T06:00:56.083Z,100912.69
2022-12-20T06:05:57.712Z,100912.25
2022-12-20T06:10:59.399Z,100909.13
2022-12-20T06:16:00.962Z,100907.84
2022-12-20T06:21:02.625Z,100889.09
2022-12-20T06:26:09.153Z,100894.25
2022-12-20T06:31:11.708Z,100897.69
2022-12-20T06:36:13.637Z,100888.38
2022-12-20T06:41:15.254Z,100902.94
2022-12-20T06:46:16.972Z,100901.22
2022-12-20T06:51:19.205Z,100897.94
2022-12-20T06:56:20.832Z,100903.97
2022-12-20T07:01:22.609Z,100900.81
2022-12-20T07:06:24.327Z,100892.34
2022-12-20T07:11:25.940Z,100904.03
2022-12-20T07:16:27.765Z,100887.03
2022-12-20T07:21:29.445Z,100893.22
2022-12-20T07:26:31.059Z,100894.97
2022-12-20T07:31:32.759Z,100888.50
2022-12-20T07:36:35.524Z,100887.47
2022-12-20T07:41:37.218Z,100884.16
2022-12-20T07:46:39.212Z,100881.75
2022-12-20T07:51:46.078Z,100882.19
2022-12-20T07:56:50.508Z,100883.13
2022-12-20T08:01:52.484Z,100889.53
2022-12-20T08:06:57.077Z,100881.97
2022-12-20T08:11:59.402Z,100867.38
2022-12-20T08:17:01.109Z,100867.41
2022-12-20T08:22:02.975Z,100871.75
2022-12-20T08:27:04.636Z,100870.88
2022-12-20T08:32:06.638Z,100872.44
2022-12-20T08:37:14.471Z,100886.53
2022-12-20T08:42:16.640Z,100885.09
2022-12-20T08:47:18.368Z,100881.38
2022-12-20T08:52:20.040Z,100879.84
2022-12-20T08:57:21.726Z,100880.09
2022-12-20T09:02:23.487Z,100875.91
2022-12-20T09:07:25.164Z,100878.66
2022-12-20T09:12:26.760Z,100874.72
2022-12-20T09:17:28.455Z,100868.34
2022-12-20T09:22:30.253Z,100867.91
2022-12-20T09:27:31.879Z,100865.16
2022-12-20T09:32:33.480Z,100855.72
2022-12-20T09:37:35.203Z,100860.59
2022-12-20T09:42:36.935Z,100866.63
2022-12-20T09:47:39.321Z,100879.34
2022-12-20T09:52:46.790Z,100881.47
2022-12-20T09:57:57.237Z,100873.16
2022-12-20T10:03:08.751Z,100869.84
2022-12-20T10:08:56.647Z,100868.56
2022-12-20T10:14:22.998Z,100851.72
2022-12-20T10:19:44.236Z,100859.06
2022-12-20T10:24:56.062Z,100852.84
2022-12-20T10:29:57.642Z,100855.34
2022-12-20T10:35:11.415Z,100845.66
2022-12-20T10:40:53.325Z,100863.19
2022-12-20T10:46:02.232Z,100856.53
2022-12-20T10:51:16.166Z,100861.13
2022-12-20T10:56:22.864Z,100850.66
2022-12-20T11:01:29.258Z,100855.94
2022-12-20T11:06:43.291Z,100857.44
2022-12-20T11:12:04.532Z,100855.28
2022-12-20T11:17:24.881Z,100852.53
2022-12-20T11:22:37.472Z,100848.63
2022-12-20T11:27:57.566Z,100844.13
2022-12-20T11:33:05.167Z,100835.97
2022-12-20T11:38:37.385Z,100836.63
2022-12-20T11:44:25.187Z,100838.13
2022-12-20T11:49:30.540Z,100846.38
2022-12-20T11:55:15.502Z,100826.59
2022-12-20T12:00:25.448Z,100823.88
2022-12-20T12:05:47.778Z,100830.16
2022-12-20T12:11:04.233Z,100820.53
2022-12-20T12:16:05.768Z,100821.94
2022-12-20T12:21:25.443Z,100819.44
2022-12-20T12:26:33.155Z,100822.91
2022-12-20T12:31:37.439Z,100825.97
2022-12-20T12:37:03.675Z,100830.47
2022-12-20T12:42:08.137Z,100828.16
2022-12-20T12:47:35.655Z,100817.09
2022-12-20T12:52:42.603Z,100822.78
2022-12-20T12:57:58.709Z,100838.00
2022-12-20T13:03:14.333Z,100825.97
2022-12-20T13:08:17.357Z,100819.06
2022-12-20T13:13:23.587Z,100819.75
2022-12-20T13:18:26.477Z,100820.38
2022-12-20T13:23:28.183Z,100831.25
2022-12-20T13:28:29.944Z,100829.25
2022-12-20T13:33:51.842Z,100831.25
2022-12-20T13:38:58.201Z,100831.97
2022-12-20T13:44:08.309Z,100838.47
2022-12-20T13:49:15.293Z,100838.09
2022-12-20T13:54:25.192Z,100837.88
2022-12-20T13:59:33.369Z,100834.88
2022-12-20T14:04:42.161Z,100837.00
2022-12-20T14:09:55.948Z,100841.44
2022-12-20T14:14:57.993Z,100834.59
2022-12-20T14:20:15.263Z,100843.75
2022-12-20T14:25:22.421Z,100847.00
2022-12-20T14:30:28.898Z,100832.09
2022-12-20T14:35:30.691Z,100846.53
2022-12-20T14:40:41.951Z,100853.31
2022-12-20T14:45:44.115Z,100849.97
2022-12-20T14:50:53.820Z,100838.25
2022-12-20T14:55:55.994Z,100852.38
2022-12-20T15:01:17.425Z,100844.94
2022-12-20T15:06:34.053Z,100846.53
2022-12-20T15:11:37.416Z,100856.09
2022-12-20T15:16:47.518Z,100841.38
2022-12-20T15:21:49.223Z,100844.09
2022-12-20T15:26:50.796Z,100833.19
2022-12-20T15:31:57.746Z,100840.81
2022-12-20T15:37:00.399Z,100859.84
2022-12-20T15:42:05.037Z,100865.91
2022-12-20T15:47:06.767Z,100855.31
2022-12-20T15:52:16.218Z,100855.63
2022-12-20T15:57:17.980Z,100854.53
2022-12-20T16:02:28.697Z,100860.59
2022-12-20T16:07:30.644Z,100860.31
2022-12-20T16:12:36.729Z,100863.50
2022-12-20T16:17:38.346Z,100855.94
2022-12-20T16:22:39.973Z,100862.97
2022-12-20T16:27:41.592Z,100862.63
2022-12-20T16:32:43.192Z,100868.97
2022-12-20T16:37:44.739Z,100866.41
2022-12-20T16:42:47.277Z,100879.41
2022-12-20T16:47:49.625Z,100881.53
2022-12-20T16:52:51.962Z,100881.25
2022-12-20T16:57:54.028Z,100884.75
2022-12-20T17:02:56.765Z,100894.78
2022-12-20T17:07:58.706Z,100895.63
2022-12-20T17:13:00.389Z,100888.16
2022-12-20T17:18:02.081Z,100905.06
2022-12-20T17:23:03.712Z,100904.66
2022-12-20T17:28:06.363Z,100907.38
2022-12-20T17:33:14.406Z,100926.09
2022-12-20T17:38:16.427Z,100916.22
2022-12-20T17:43:18.141Z,100912.66
2022-12-20T17:48:19.787Z,100920.38
2022-12-20T17:53:21.837Z,100940.06
2022-12-20T17:58:23.477Z,100927.66
2022-12-20T18:04:01.571Z,100921.22
2022-12-20T18:08:51.287Z,100918.34
2022-12-20T18:13:55.299Z,100923.91
2022-12-20T18:18:57.806Z,100930.59
2022-12-20T18:23:59.496Z,100915.69
2022-12-20T18:29:02.758Z,100917.69
2022-12-20T18:34:04.955Z,100918.06
2022-12-20T18:39:08.492Z,100932.19
2022-12-20T18:44:11.853Z,100938.19
2022-12-20T18:49:13.399Z,100936.34
2022-12-20T18:54:14.914Z,100936.34
2022-12-20T18:59:16.467Z,100921.59
2022-12-20T19:04:24.367Z,100919.56
2022-12-20T19:09:26.628Z,100912.97
2022-12-20T19:14:29.850Z,100918.25
2022-12-20T19:19:31.435Z,100919.88
2022-12-20T19:24:33.047Z,100924.16
2022-12-20T19:29:34.589Z,100927.19
2022-12-20T19:34:36.081Z,100930.91
2022-12-20T19:39:37.616Z,100931.34
2022-12-20T19:44:39.262Z,100946.13
2022-12-20T19:49:40.735Z,100938.81
2022-12-20T19:54:43.216Z,100939.66
2022-12-20T19:59:44.799Z,100947.97
2022-12-20T20:04:46.350Z,100948.44
2022-12-20T20:09:47.893Z,100942.44
2022-12-20T20:14:49.485Z,100951.88
2022-12-20T20:19:51.816Z,100960.34
2022-12-20T20:24:53.315Z,100956.50
2022-12-20T20:29:54.857Z,100957.69
2022-12-20T20:34:56.428Z,100969.00
2022-12-20T20:39:57.971Z,100986.44
2022-12-20T20:44:59.526Z,100961.41
2022-12-20T20:50:01.106Z,100964.97
2022-12-20T20:55:03.049Z,100961.72
2022-12-20T21:00:05.976Z,100976.84
2022-12-20T21:05:52.818Z,100976.44
2022-12-20T21:10:30.076Z,100975.03
2022-12-20T21:15:33.812Z,100987.50
2022-12-20T21:20:36.708Z,100998.78
2022-12-20T21:25:38.217Z,100978.19
2022-12-20T21:30:39.707Z,100991.94
2022-12-20T21:35:41.237Z,100999.22
2022-12-20T21:40:42.764Z,100992.94
2022-12-20T21:45:44.298Z,100968.50
2022-12-20T21:50:46.079Z,100973.50
2022-12-20T21:55:47.614Z,100979.97
2022-12-20T22:00:54.330Z,100978.22
2022-12-20T22:05:56.745Z,100966.94
2022-12-20T22:11:04.322Z,100976.94
2022-12-20T22:16:16.906Z,100976.41
2022-12-20T22:21:20.492Z,100987.38
2022-12-20T22:26:24.397Z,100984.41
2022-12-20T22:31:26.266Z,100990.25
2022-12-20T22:36:28.145Z,100997.81
2022-12-20T22:41:35.147Z,100986.94
2022-12-20T22:46:36.850Z,100996.78
2022-12-20T22:51:38.750Z,101000.06
2022-12-20T22:56:40.241Z,101010.66
2022-12-20T23:01:41.969Z,101000.06
2022-12-20T23:06:43.530Z,100998.34
2022-12-20T23:12:04.082Z,101003.31
2022-12-20T23:17:08.488Z,101005.91
2022-12-20T23:22:30.819Z,101004.47
2022-12-20T23:27:32.640Z,100994.19
2022-12-20T23:32:34.328Z,101005.84
2022-12-20T23:37:36.073Z,101010.81
2022-12-20T23:42:37.695Z,101008.75
2022-12-20T23:47:39.251Z,101018.00
2022-12-20T23:52:40.841Z,101012.06
2022-12-20T23:57:42.367Z,101020.69
